createdAt,value
2023-02-19T00:00:25.188Z,55.97
2023-02-19T00:02:58.530Z,56.59
2023-02-19T00:05:28.726Z,56.61
2023-02-19T00:07:59.304Z,56.83
2023-02-19T00:10:29.634Z,56.81
2023-02-19T00:13:00.451Z,56.61
2023-02-19T00:15:30.663Z,56.85
2023-02-19T00:18:03.542Z,57.01
2023-02-19T00:20:33.779Z,56.27
2023-02-19T00:23:03.936Z,55.71
2023-02-19T00:25:34.142Z,56.33
2023-02-19T00:28:04.311Z,56.29
2023-02-19T00:30:34.677Z,56.24
2023-02-19T00:33:08.702Z,56.05
2023-02-19T00:35:39.591Z,56.03
2023-02-19T00:38:09.947Z,56.39
2023-02-19T00:40:41.571Z,56.13
2023-02-19T00:43:11.806Z,56.35
2023-02-19T00:45:42.138Z,56.03
2023-02-19T00:48:14.930Z,56.22
2023-02-19T00:50:45.179Z,56.45
2023-02-19T00:53:15.380Z,58.00
2023-02-19T00:55:46.523Z,58.57
2023-02-19T00:58:16.715Z,59.09
2023-02-19T01:00:46.857Z,60.59
2023-02-19T01:03:19.759Z,60.29
2023-02-19T01:05:50.154Z,60.62
2023-02-19T01:08:20.770Z,60.91
2023-02-19T01:10:51.427Z,61.30
2023-02-19T01:13:22.078Z,61.23
2023-02-19T01:15:52.297Z,61.40
2023-02-19T01:18:25.663Z,60.92
2023-02-19T01:20:55.890Z,60.49
2023-02-19T01:23:26.235Z,60.49
2023-02-19T01:25:56.567Z,60.26
2023-02-19T01:28:26.849Z,59.88
2023-02-19T01:30:57.069Z,59.98
2023-02-19T01:33:29.880Z,60.36
2023-02-19T01:36:00.193Z,60.26
2023-02-19T01:38:31.074Z,60.57
2023-02-19T01:41:03.696Z,60.15
2023-02-19T01:43:35.778Z,60.46
2023-02-19T01:46:08.690Z,60.07
2023-02-19T01:48:42.695Z,59.91
2023-02-19T01:51:17.956Z,59.82
2023-02-19T01:53:52.096Z,59.65
2023-02-19T01:56:24.041Z,59.38
2023-02-19T01:58:54.550Z,59.33
2023-02-19T02:01:24.885Z,58.71
2023-02-19T02:03:57.766Z,58.86
2023-02-19T02:06:34.372Z,58.80
2023-02-19T02:09:17.311Z,59.05
2023-02-19T02:11:50.737Z,58.76
2023-02-19T02:14:22.934Z,58.52
2023-02-19T02:17:01.633Z,58.93
2023-02-19T02:19:59.160Z,58.45
2023-02-19T02:22:35.791Z,58.61
2023-02-19T02:25:35.294Z,58.82
2023-02-19T02:28:20.154Z,59.06
2023-02-19T02:30:57.249Z,59.06
2023-02-19T02:33:34.538Z,58.85
2023-02-19T02:36:08.833Z,59.31
2023-02-19T02:38:42.936Z,59.27
2023-02-19T02:41:14.753Z,59.17
2023-02-19T02:43:45.552Z,59.08
2023-02-19T02:46:22.835Z,59.11
2023-02-19T02:48:56.633Z,59.58
2023-02-19T02:51:29.678Z,59.10
2023-02-19T02:54:17.358Z,58.98
2023-02-19T02:56:49.541Z,59.15
2023-02-19T02:59:24.438Z,58.43
2023-02-19T03:02:15.196Z,58.33
2023-02-19T03:05:07.911Z,57.84
2023-02-19T03:07:42.356Z,58.13
2023-02-19T03:10:17.200Z,57.83
2023-02-19T03:13:00.987Z,57.62
2023-02-19T03:15:49.108Z,56.87
2023-02-19T03:18:37.836Z,56.61
2023-02-19T03:21:10.476Z,56.14
2023-02-19T03:23:53.730Z,56.04
2023-02-19T03:26:24.784Z,55.71
2023-02-19T03:29:08.672Z,54.72
2023-02-19T03:31:45.151Z,54.84
2023-02-19T03:34:25.270Z,54.48
2023-02-19T03:37:03.448Z,54.35
2023-02-19T03:39:33.699Z,54.21
2023-02-19T03:42:12.932Z,54.34
2023-02-19T03:44:49.734Z,54.71
2023-02-19T03:47:26.262Z,54.52
2023-02-19T03:50:05.019Z,54.81
2023-02-19T03:52:44.397Z,54.88
2023-02-19T03:55:19.651Z,54.97
2023-02-19T03:57:56.756Z,55.07
2023-02-19T04:00:34.301Z,54.93
2023-02-19T04:03:10.794Z,54.99
2023-02-19T04:05:48.262Z,54.95
2023-02-19T04:08:21.379Z,54.73
2023-02-19T04:10:53.599Z,54.96
2023-02-19T04:13:28.383Z,55.39
2023-02-19T04:16:04.218Z,55.14
2023-02-19T04:18:38.309Z,55.09
2023-02-19T04:21:13.414Z,55.64
2023-02-19T04:23:47.247Z,55.63
2023-02-19T04:26:19.957Z,55.31
2023-02-19T04:28:50.481Z,55.80
2023-02-19T04:31:20.954Z,56.14
2023-02-19T04:33:51.253Z,56.49
2023-02-19T04:36:24.132Z,56.48
2023-02-19T04:38:54.343Z,56.70
2023-02-19T04:41:24.567Z,56.53
2023-02-19T04:43:54.937Z,56.54
2023-02-19T04:46:25.190Z,56.42
2023-02-19T04:48:55.425Z,56.84
2023-02-19T04:51:28.350Z,57.03
2023-02-19T04:54:01.047Z,57.12
2023-02-19T04:56:31.745Z,57.11
2023-02-19T04:59:04.549Z,56.95
2023-02-19T05:01:35.306Z,56.61
2023-02-19T05:04:05.623Z,56.46
2023-02-19T05:06:38.488Z,56.50
2023-02-19T05:09:09.152Z,56.30
2023-02-19T05:11:39.399Z,56.53
2023-02-19T05:14:09.532Z,56.42
2023-02-19T05:16:39.733Z,56.58
2023-02-19T05:19:09.967Z,56.10
2023-02-19T05:21:43.258Z,56.17
2023-02-19T05:24:13.524Z,56.96
2023-02-19T05:26:45.439Z,56.88
2023-02-19T05:29:16.151Z,57.18
2023-02-19T05:31:46.534Z,57.33
2023-02-19T05:34:16.838Z,57.30
2023-02-19T05:36:49.691Z,57.72
2023-02-19T05:39:19.899Z,57.61
2023-02-19T05:41:50.119Z,57.83
2023-02-19T05:44:20.399Z,57.99
2023-02-19T05:46:50.561Z,58.08
2023-02-19T05:49:20.870Z,58.49
2023-02-19T05:51:56.026Z,58.68
2023-02-19T05:54:26.274Z,59.41
2023-02-19T05:56:56.492Z,59.78
2023-02-19T05:59:28.608Z,59.07
2023-02-19T06:01:58.951Z,58.94
2023-02-19T06:04:29.116Z,58.59
2023-02-19T06:07:01.953Z,58.19
2023-02-19T06:09:32.531Z,58.21
2023-02-19T06:12:02.991Z,57.14
2023-02-19T06:14:33.249Z,56.37
2023-02-19T06:17:03.493Z,55.88
2023-02-19T06:19:34.295Z,55.84
2023-02-19T06:22:07.437Z,56.00
2023-02-19T06:24:37.774Z,55.36
2023-02-19T06:27:08.963Z,55.22
2023-02-19T06:29:40.859Z,54.97
2023-02-19T06:32:11.339Z,54.91
2023-02-19T06:34:41.470Z,54.56
2023-02-19T06:37:14.302Z,54.73
2023-02-19T06:39:47.769Z,54.27
2023-02-19T06:42:18.074Z,54.15
2023-02-19T06:44:48.231Z,54.13
2023-02-19T06:47:18.461Z,53.46
2023-02-19T06:49:48.604Z,53.18
2023-02-19T06:52:21.455Z,52.95
2023-02-19T06:54:51.611Z,52.60
2023-02-19T06:57:21.968Z,52.36
2023-02-19T06:59:52.191Z,52.69
2023-02-19T07:02:22.425Z,52.98
2023-02-19T07:04:52.606Z,52.63
2023-02-19T07:07:25.448Z,52.22
2023-02-19T07:09:55.983Z,52.72
2023-02-19T07:12:26.232Z,52.81
2023-02-19T07:14:56.931Z,52.96
2023-02-19T07:17:27.115Z,53.18
2023-02-19T07:19:58.085Z,53.63
2023-02-19T07:22:30.940Z,53.47
2023-02-19T07:25:01.121Z,53.30
2023-02-19T07:27:31.268Z,52.84
2023-02-19T07:30:03.203Z,52.67
2023-02-19T07:32:33.795Z,53.26
2023-02-19T07:35:03.947Z,53.32
2023-02-19T07:37:36.824Z,53.30
2023-02-19T07:40:08.872Z,53.76
2023-02-19T07:42:39.181Z,53.50
2023-02-19T07:45:10.253Z,53.80
2023-02-19T07:47:40.502Z,53.72
2023-02-19T07:50:13.888Z,54.24
2023-02-19T07:52:46.857Z,53.71
2023-02-19T07:55:17.183Z,53.76
2023-02-19T07:57:47.426Z,54.06
2023-02-19T08:00:19.258Z,55.00
2023-02-19T08:03:04.655Z,54.02
2023-02-19T08:05:37.299Z,54.68
2023-02-19T08:08:13.094Z,54.54
2023-02-19T08:10:56.118Z,54.38
2023-02-19T08:13:27.873Z,54.59
2023-02-19T08:16:16.076Z,54.26
2023-02-19T08:18:50.051Z,54.34
2023-02-19T08:21:21.212Z,54.68
2023-02-19T08:23:54.025Z,54.67
2023-02-19T08:26:24.316Z,54.53
2023-02-19T08:28:54.801Z,54.86
2023-02-19T08:31:25.162Z,55.25
2023-02-19T08:33:55.604Z,55.64
2023-02-19T08:36:25.900Z,55.50
2023-02-19T08:38:58.726Z,56.01
2023-02-19T08:41:31.741Z,55.99
2023-02-19T08:44:02.032Z,55.29
2023-02-19T08:46:34.313Z,55.88
2023-02-19T08:49:04.973Z,56.09
2023-02-19T08:51:35.628Z,55.50
2023-02-19T08:54:08.778Z,55.48
2023-02-19T08:56:39.085Z,55.66
2023-02-19T08:59:12.463Z,55.37
2023-02-19T09:01:42.817Z,55.28
2023-02-19T09:04:15.355Z,55.02
2023-02-19T09:06:45.650Z,54.84
2023-02-19T09:09:18.511Z,54.89
2023-02-19T09:11:49.800Z,54.96
2023-02-19T09:14:20.017Z,54.70
2023-02-19T09:16:50.468Z,54.42
2023-02-19T09:19:20.720Z,54.34
2023-02-19T09:21:50.899Z,54.26
2023-02-19T09:24:24.143Z,54.26
2023-02-19T09:26:55.609Z,54.44
2023-02-19T09:29:28.495Z,53.65
2023-02-19T09:32:02.699Z,53.29
2023-02-19T09:34:33.112Z,52.36
2023-02-19T09:37:03.400Z,52.39
2023-02-19T09:39:36.618Z,52.16
2023-02-19T09:42:15.572Z,51.72
2023-02-19T09:44:48.514Z,50.87
2023-02-19T09:47:22.390Z,50.54
2023-02-19T09:49:55.956Z,50.93
2023-02-19T09:52:32.018Z,51.10
2023-02-19T09:55:07.643Z,51.30
2023-02-19T09:57:39.291Z,50.58
2023-02-19T10:00:23.363Z,51.42
2023-02-19T10:03:07.678Z,51.94
2023-02-19T10:05:38.485Z,51.98
2023-02-19T10:08:13.110Z,51.79
2023-02-19T10:10:47.366Z,52.78
2023-02-19T10:13:22.664Z,53.29
2023-02-19T10:15:55.561Z,53.42
2023-02-19T10:18:28.536Z,53.47
2023-02-19T10:21:00.184Z,54.38
2023-02-19T10:23:30.895Z,54.40
2023-02-19T10:26:04.031Z,54.72
2023-02-19T10:28:37.636Z,54.78
2023-02-19T10:31:20.899Z,55.24
2023-02-19T10:33:56.778Z,55.20
2023-02-19T10:36:32.625Z,56.74
2023-02-19T10:39:04.727Z,56.86
2023-02-19T10:41:44.423Z,57.57
2023-02-19T10:44:21.018Z,58.79
2023-02-19T10:46:55.424Z,58.88
2023-02-19T10:49:30.780Z,60.91
2023-02-19T10:52:05.715Z,59.76
2023-02-19T10:54:36.672Z,58.52
2023-02-19T10:57:31.365Z,58.96
2023-02-19T11:00:02.383Z,59.75
2023-02-19T11:02:34.626Z,59.67
2023-02-19T11:05:21.006Z,60.84
2023-02-19T11:07:56.408Z,63.29
2023-02-19T11:10:31.026Z,66.14
2023-02-19T11:13:08.629Z,67.11
2023-02-19T11:15:40.247Z,67.92
2023-02-19T11:18:24.170Z,67.91
2023-02-19T11:20:57.813Z,69.22
2023-02-19T11:23:32.430Z,68.77
2023-02-19T11:26:08.121Z,68.89
2023-02-19T11:28:43.174Z,68.67
2023-02-19T11:31:24.712Z,68.55
2023-02-19T11:33:59.566Z,68.42
2023-02-19T11:36:36.395Z,68.43
2023-02-19T11:39:25.594Z,68.26
2023-02-19T11:42:15.326Z,69.09
2023-02-19T11:45:02.665Z,69.59
2023-02-19T11:47:51.310Z,69.19
2023-02-19T11:50:30.055Z,69.09
2023-02-19T11:53:17.298Z,69.91
2023-02-19T11:56:03.903Z,69.18
2023-02-19T11:59:02.659Z,68.75
2023-02-19T12:01:58.722Z,69.26
2023-02-19T12:04:58.726Z,67.78
2023-02-19T12:07:50.183Z,66.72
2023-02-19T12:10:26.361Z,65.79
2023-02-19T12:13:09.698Z,66.40
2023-02-19T12:16:03.846Z,64.90
2023-02-19T12:19:05.227Z,65.05
2023-02-19T12:21:58.743Z,63.84
2023-02-19T12:24:56.444Z,62.58
2023-02-19T12:27:41.855Z,61.91
2023-02-19T12:30:34.712Z,62.51
2023-02-19T12:33:25.199Z,61.13
2023-02-19T12:36:12.485Z,60.44
2023-02-19T12:38:47.837Z,60.88
2023-02-19T12:41:29.744Z,59.95
2023-02-19T12:44:04.711Z,60.93
2023-02-19T12:46:39.493Z,60.33
2023-02-19T12:49:15.558Z,60.67
2023-02-19T12:51:55.329Z,60.48
2023-02-19T12:54:29.958Z,60.37
2023-02-19T12:57:05.193Z,59.09
2023-02-19T12:59:43.344Z,58.40
2023-02-19T13:02:20.790Z,58.37
2023-02-19T13:04:57.749Z,56.84
2023-02-19T13:07:35.790Z,57.29
2023-02-19T13:10:20.663Z,56.48
2023-02-19T13:12:52.797Z,56.67
2023-02-19T13:15:28.588Z,56.24
2023-02-19T13:18:01.746Z,56.72
2023-02-19T13:20:35.556Z,56.83
2023-02-19T13:23:26.787Z,56.64
2023-02-19T13:26:22.559Z,56.04
2023-02-19T13:29:04.851Z,55.15
2023-02-19T13:31:55.409Z,55.32
2023-02-19T13:34:42.552Z,55.52
2023-02-19T13:37:14.035Z,55.43
2023-02-19T13:39:53.310Z,55.30
2023-02-19T13:42:29.362Z,55.33
2023-02-19T13:45:02.027Z,54.97
2023-02-19T13:47:50.989Z,54.51
2023-02-19T13:50:25.475Z,54.88
2023-02-19T13:53:04.436Z,54.38
2023-02-19T13:55:54.824Z,54.46
2023-02-19T13:58:56.694Z,54.42
2023-02-19T14:02:17.878Z,54.39
2023-02-19T14:04:54.383Z,54.03
2023-02-19T14:07:53.317Z,53.79
2023-02-19T14:11:02.707Z,53.67
2023-02-19T14:14:06.862Z,53.72
2023-02-19T14:16:57.831Z,53.70
2023-02-19T14:20:00.498Z,53.44
2023-02-19T14:23:12.589Z,52.94
2023-02-19T14:25:53.439Z,52.14
2023-02-19T14:28:36.416Z,52.38
2023-02-19T14:31:22.977Z,51.76
2023-02-19T14:33:55.611Z,51.31
2023-02-19T14:36:44.290Z,50.89
2023-02-19T14:39:19.961Z,50.99
2023-02-19T14:41:53.907Z,50.15
2023-02-19T14:44:37.768Z,50.72
2023-02-19T14:47:16.499Z,50.49
2023-02-19T14:49:51.002Z,52.10
2023-02-19T14:52:28.497Z,54.75
2023-02-19T14:55:04.184Z,57.22
2023-02-19T14:57:38.963Z,60.83
2023-02-19T15:00:27.088Z,61.60
2023-02-19T15:03:02.742Z,62.44
2023-02-19T15:05:36.792Z,61.91
2023-02-19T15:08:12.992Z,61.74
2023-02-19T15:10:46.378Z,62.09
2023-02-19T15:13:27.951Z,63.59
2023-02-19T15:15:58.814Z,63.88
2023-02-19T15:18:36.394Z,63.27
2023-02-19T15:21:10.138Z,62.80
2023-02-19T15:23:41.986Z,60.86
2023-02-19T15:26:24.096Z,60.83
2023-02-19T15:29:02.145Z,60.05
2023-02-19T15:31:32.689Z,60.55
2023-02-19T15:34:06.252Z,60.17
2023-02-19T15:36:38.025Z,60.49
2023-02-19T15:39:08.682Z,60.40
2023-02-19T15:41:39.225Z,60.16
2023-02-19T15:44:29.947Z,60.05
2023-02-19T15:47:03.821Z,59.63
2023-02-19T15:49:41.654Z,60.13
2023-02-19T15:52:15.117Z,59.25
2023-02-19T15:54:52.323Z,60.05
2023-02-19T15:57:27.877Z,59.16
2023-02-19T16:00:05.703Z,58.43
2023-02-19T16:02:37.280Z,57.97
2023-02-19T16:05:19.078Z,57.61
2023-02-19T16:07:52.536Z,57.52
2023-02-19T16:10:26.420Z,57.51
2023-02-19T16:13:05.093Z,57.13
2023-02-19T16:15:36.915Z,57.22
2023-02-19T16:18:08.014Z,57.06
2023-02-19T16:20:41.241Z,57.22
2023-02-19T16:23:17.558Z,57.44
2023-02-19T16:25:49.728Z,57.84
2023-02-19T16:28:25.268Z,57.42
2023-02-19T16:31:00.172Z,57.65
2023-02-19T16:33:48.509Z,57.83
2023-02-19T16:36:29.452Z,58.54
2023-02-19T16:39:07.276Z,59.23
2023-02-19T16:41:49.571Z,59.44
2023-02-19T16:44:35.923Z,59.94
2023-02-19T16:47:09.740Z,60.61
2023-02-19T16:49:42.641Z,60.93
2023-02-19T16:52:18.319Z,61.22
2023-02-19T16:54:50.525Z,61.18
2023-02-19T16:57:23.913Z,61.15
2023-02-19T16:59:56.402Z,61.32
2023-02-19T17:02:34.029Z,60.84
2023-02-19T17:05:07.044Z,61.20
2023-02-19T17:07:40.082Z,61.54
2023-02-19T17:10:14.123Z,61.08
2023-02-19T17:12:54.102Z,60.95
2023-02-19T17:15:26.058Z,61.85
2023-02-19T17:17:56.681Z,61.98
2023-02-19T17:20:32.048Z,62.09
2023-02-19T17:23:07.796Z,61.95
2023-02-19T17:25:38.104Z,62.04
2023-02-19T17:28:12.902Z,62.13
2023-02-19T17:30:43.545Z,62.41
2023-02-19T17:33:14.076Z,62.41
2023-02-19T17:35:45.644Z,62.64
2023-02-19T17:38:18.806Z,63.28
2023-02-19T17:40:51.664Z,62.97
2023-02-19T17:43:22.242Z,63.21
2023-02-19T17:45:56.396Z,62.84
2023-02-19T17:48:27.236Z,63.36
2023-02-19T17:50:57.983Z,63.09
2023-02-19T17:53:31.409Z,63.33
2023-02-19T17:56:01.609Z,63.45
2023-02-19T17:58:32.071Z,63.71
2023-02-19T18:01:03.036Z,63.76
2023-02-19T18:03:33.651Z,63.85
2023-02-19T18:06:04.113Z,64.08
2023-02-19T18:08:37.992Z,64.22
2023-02-19T18:11:10.574Z,64.34
2023-02-19T18:13:42.003Z,64.15
2023-02-19T18:16:15.771Z,63.60
2023-02-19T18:18:46.628Z,64.36
2023-02-19T18:21:22.053Z,64.35
2023-02-19T18:23:56.212Z,64.34
2023-02-19T18:26:26.890Z,64.22
2023-02-19T18:28:57.461Z,64.42
2023-02-19T18:31:27.820Z,64.55
2023-02-19T18:33:58.688Z,63.99
2023-02-19T18:36:30.529Z,64.02
2023-02-19T18:39:04.075Z,64.73
2023-02-19T18:41:37.104Z,64.97
2023-02-19T18:44:07.970Z,64.33
2023-02-19T18:46:38.364Z,64.47
2023-02-19T18:49:10.007Z,63.87
2023-02-19T18:51:40.339Z,64.58
2023-02-19T18:54:13.672Z,65.48
2023-02-19T18:56:45.970Z,65.12
2023-02-19T18:59:18.888Z,65.51
2023-02-19T19:01:49.422Z,65.47
2023-02-19T19:04:20.123Z,65.49
2023-02-19T19:06:51.006Z,66.07
2023-02-19T19:09:24.367Z,65.74
2023-02-19T19:11:54.864Z,65.20
2023-02-19T19:14:25.440Z,65.30
2023-02-19T19:16:56.498Z,65.56
2023-02-19T19:19:29.752Z,65.20
2023-02-19T19:22:00.673Z,64.92
2023-02-19T19:24:37.265Z,65.25
2023-02-19T19:27:07.847Z,65.53
2023-02-19T19:29:39.136Z,65.73
2023-02-19T19:32:10.835Z,66.08
2023-02-19T19:34:42.888Z,66.17
2023-02-19T19:37:13.791Z,66.37
2023-02-19T19:39:48.258Z,66.32
2023-02-19T19:42:18.622Z,66.51
2023-02-19T19:44:49.312Z,67.53
2023-02-19T19:47:19.863Z,66.91
2023-02-19T19:49:54.350Z,67.09
2023-02-19T19:52:28.228Z,67.33
2023-02-19T19:55:04.344Z,67.39
2023-02-19T19:57:34.636Z,67.49
2023-02-19T20:00:06.189Z,66.96
2023-02-19T20:02:36.665Z,66.40
2023-02-19T20:05:08.168Z,65.88
2023-02-19T20:07:38.802Z,63.28
2023-02-19T20:10:14.019Z,61.22
2023-02-19T20:12:44.598Z,58.79
2023-02-19T20:15:18.911Z,57.03
2023-02-19T20:17:50.560Z,55.93
2023-02-19T20:20:24.379Z,54.61
2023-02-19T20:23:00.102Z,54.08
2023-02-19T20:25:37.205Z,54.00
2023-02-19T20:28:07.922Z,53.04
2023-02-19T20:30:41.147Z,53.10
2023-02-19T20:33:11.629Z,52.60
2023-02-19T20:35:41.854Z,52.27
2023-02-19T20:38:12.028Z,51.12
2023-02-19T20:40:45.303Z,51.18
2023-02-19T20:43:15.897Z,50.54
2023-02-19T20:45:47.929Z,49.99
2023-02-19T20:48:24.814Z,50.05
2023-02-19T20:50:59.320Z,49.76
2023-02-19T20:53:33.108Z,49.97
2023-02-19T20:56:11.524Z,49.40
2023-02-19T20:58:45.266Z,49.36
2023-02-19T21:01:16.249Z,49.33
2023-02-19T21:03:46.784Z,49.64
2023-02-19T21:06:18.140Z,49.49
2023-02-19T21:08:51.441Z,49.38
2023-02-19T21:11:24.644Z,49.48
2023-02-19T21:13:56.778Z,49.74
2023-02-19T21:16:27.304Z,49.65
2023-02-19T21:18:57.863Z,49.64
2023-02-19T21:21:30.442Z,50.79
2023-02-19T21:24:02.520Z,54.88
2023-02-19T21:26:43.128Z,57.08
2023-02-19T21:29:19.079Z,58.25
2023-02-19T21:31:51.022Z,58.41
2023-02-19T21:34:23.417Z,58.30
2023-02-19T21:36:53.796Z,58.65
2023-02-19T21:39:31.374Z,58.72
2023-02-19T21:42:04.516Z,59.10
2023-02-19T21:44:34.710Z,59.65
2023-02-19T21:47:04.992Z,59.95
2023-02-19T21:49:35.178Z,60.07
2023-02-19T21:52:05.437Z,60.59
2023-02-19T21:54:38.330Z,60.82
2023-02-19T21:57:12.257Z,61.23
2023-02-19T21:59:42.578Z,61.24
2023-02-19T22:02:13.677Z,60.96
2023-02-19T22:04:44.168Z,60.79
2023-02-19T22:07:14.515Z,61.16
2023-02-19T22:09:46.403Z,60.46
2023-02-19T22:12:19.690Z,59.16
2023-02-19T22:14:49.849Z,50.79
2023-02-19T22:17:19.973Z,49.55
2023-02-19T22:19:50.219Z,50.25
2023-02-19T22:22:20.522Z,49.08
2023-02-19T22:24:50.708Z,47.63
2023-02-19T22:27:24.722Z,48.71
2023-02-19T22:29:56.367Z,49.15
2023-02-19T22:32:26.721Z,49.07
2023-02-19T22:34:57.115Z,49.42
2023-02-19T22:37:27.323Z,50.53
2023-02-19T22:39:57.623Z,52.04
2023-02-19T22:42:30.462Z,51.70
2023-02-19T22:45:00.685Z,51.96
2023-02-19T22:47:30.900Z,51.61
2023-02-19T22:50:01.587Z,52.20
2023-02-19T22:52:31.931Z,51.52
2023-02-19T22:55:02.680Z,51.60
2023-02-19T22:57:37.812Z,52.04
2023-02-19T23:00:12.184Z,53.38
2023-02-19T23:02:48.330Z,52.57
2023-02-19T23:05:20.009Z,53.31
2023-02-19T23:07:50.373Z,54.08
2023-02-19T23:10:21.002Z,54.16
2023-02-19T23:12:53.835Z,54.41
2023-02-19T23:15:24.418Z,54.78
2023-02-19T23:17:54.596Z,54.84
2023-02-19T23:20:24.983Z,54.27
2023-02-19T23:22:56.746Z,54.67
2023-02-19T23:25:26.933Z,54.61
2023-02-19T23:28:02.793Z,54.57
2023-02-19T23:30:33.221Z,53.64
2023-02-19T23:33:03.519Z,53.96
2023-02-19T23:35:33.726Z,54.88
2023-02-19T23:38:04.062Z,53.53
2023-02-19T23:40:34.215Z,53.35
2023-02-19T23:43:07.249Z,53.52
2023-02-19T23:45:37.490Z,53.84
2023-02-19T23:48:07.847Z,54.58
2023-02-19T23:50:38.153Z,53.76
2023-02-19T23:53:08.827Z,54.48
2023-02-19T23:55:38.986Z,54.20
2023-02-19T23:58:11.799Z,54.02
